Apple Creek, Missouri
Current Conditions -  °F | °C
As of 2:53 AM on Saturday 25 Oct 2014 (Local Time) from KCGI Reporting Station
Few Clouds Few Clouds  
Wind Chill: 52°   Ceiling: Unl
Heat Index: 52°   Visibility: 9mi
Dew Point: 51°   Wind: 3mph
Humidity: 97%   Direction: 130°SE
Pressure: 30.03"   Gusts: NA
Location:  37.5321°N, 89.7536°W
Report Text: KCGI 250753Z AUTO 13003KT 9SM FEW065 11/11 A3003 RMK AO2 SLP169 T01110106 TSNO
Loading
Personal Weather Stations






























Interactive Weather Map
Tropical Storm Tracking
New forecast layout! Learn more

10-Day Weather Forecast

Advertisements
Track Severe Weather on mobile